Weaver, Minnesota
Current Conditions -  °F | °C
As of 7:33 PM on Saturday 25 Oct 2014 (Local Time) from KONA Reporting Station
Clear Clear  
Wind Chill: 57°   Ceiling: Unl
Heat Index: 57°   Visibility: 10mi
Dew Point: 30°   Wind: 8mph
Humidity: 36%   Direction: 310°NW
Pressure: 30.02"   Gusts: NA
Location:  44.1503°N, 91.9879°W
Report Text: KONA 260033Z AUTO 31007KT 10SM CLR 14/M01 A3002 RMK AO2
Loading
Personal Weather Stations






























Interactive Weather Map
Tropical Storm Tracking
New forecast layout! Learn more

10-Day Weather Forecast

Advertisements
Track Severe Weather on mobile